createdAt,value
2023-02-16T00:00:40.031Z,51.10
2023-02-16T00:01:30.731Z,46.53
2023-02-16T00:03:04.444Z,47.15
2023-02-16T00:03:52.363Z,50.33
2023-02-16T00:04:39.294Z,54.40
2023-02-16T00:05:31.555Z,54.97
2023-02-16T00:06:18.655Z,46.72
2023-02-16T00:07:05.501Z,50.67
2023-02-16T00:07:53.315Z,48.97
2023-02-16T00:08:41.120Z,47.85
2023-02-16T00:09:28.025Z,56.25
2023-02-16T00:10:15.047Z,49.38
2023-02-16T00:11:20.241Z,51.47
2023-02-16T00:12:36.764Z,55.63
2023-02-16T00:13:48.170Z,46.80
2023-02-16T00:14:36.810Z,50.20
2023-02-16T00:15:23.709Z,53.67
2023-02-16T00:16:15.891Z,52.15
2023-02-16T00:17:03.189Z,48.95
2023-02-16T00:17:50.067Z,50.95
2023-02-16T00:18:37.003Z,50.65
2023-02-16T00:19:26.842Z,53.20
2023-02-16T00:20:17.458Z,52.95
2023-02-16T00:21:53.702Z,53.33
2023-02-16T00:22:40.513Z,51.58
2023-02-16T00:23:27.407Z,52.78
2023-02-16T00:24:14.688Z,47.83
2023-02-16T00:25:01.596Z,55.38
2023-02-16T00:25:48.460Z,51.65
2023-02-16T00:26:35.694Z,52.72
2023-02-16T00:27:22.617Z,49.92
2023-02-16T00:28:16.365Z,54.53
2023-02-16T00:29:03.240Z,54.78
2023-02-16T00:29:50.147Z,49.83
2023-02-16T00:30:37.040Z,53.58
2023-02-16T00:31:28.040Z,52.50
2023-02-16T00:32:15.171Z,55.88
2023-02-16T00:33:02.271Z,54.30
2023-02-16T00:33:49.759Z,47.62
2023-02-16T00:34:38.985Z,54.97
2023-02-16T00:35:25.863Z,54.53
2023-02-16T00:36:12.842Z,54.03
2023-02-16T00:37:05.159Z,50.90
2023-02-16T00:37:52.067Z,54.47
2023-02-16T00:38:39.045Z,53.53
2023-02-16T00:39:26.410Z,53.05
2023-02-16T00:40:14.855Z,53.85
2023-02-16T00:41:01.984Z,52.10
2023-02-16T00:41:51.833Z,51.25
2023-02-16T00:42:39.063Z,42.67
2023-02-16T00:43:28.646Z,60.45
2023-02-16T00:44:19.765Z,53.97
2023-02-16T00:45:13.702Z,52.33
2023-02-16T00:46:00.658Z,51.92
2023-02-16T00:46:48.177Z,52.75
2023-02-16T00:47:39.873Z,53.15
2023-02-16T00:48:26.796Z,54.72
2023-02-16T00:49:19.379Z,49.45
2023-02-16T00:50:18.936Z,48.67
2023-02-16T00:51:20.322Z,50.78
2023-02-16T00:52:39.129Z,49.80
2023-02-16T00:53:25.941Z,50.45
2023-02-16T00:54:13.420Z,50.45
2023-02-16T00:55:01.867Z,53.00
2023-02-16T00:55:48.817Z,49.83
2023-02-16T00:56:35.981Z,47.62
2023-02-16T00:57:22.992Z,52.33
2023-02-16T00:58:36.301Z,55.28
2023-02-16T00:59:23.745Z,52.15
2023-02-16T01:00:31.365Z,49.42
2023-02-16T01:01:20.179Z,50.67
2023-02-16T01:02:07.087Z,52.30
2023-02-16T01:02:56.102Z,50.50
2023-02-16T01:03:44.007Z,49.60
2023-02-16T01:04:30.893Z,51.70
2023-02-16T01:05:18.231Z,51.67
2023-02-16T01:06:24.325Z,49.40
2023-02-16T01:07:33.701Z,49.38
2023-02-16T01:08:39.248Z,49.17
2023-02-16T01:09:44.584Z,48.42
2023-02-16T01:11:07.626Z,49.38
2023-02-16T01:11:54.522Z,49.13
2023-02-16T01:12:41.668Z,48.08
2023-02-16T01:13:29.285Z,50.60
2023-02-16T01:14:18.611Z,48.87
2023-02-16T01:15:07.150Z,49.00
2023-02-16T01:15:54.079Z,46.60
2023-02-16T01:16:42.472Z,48.67
2023-02-16T01:17:29.372Z,47.83
2023-02-16T01:18:18.257Z,47.72
2023-02-16T01:19:05.497Z,51.83
2023-02-16T01:19:52.553Z,45.95
2023-02-16T01:20:39.483Z,47.42
2023-02-16T01:21:26.301Z,44.30
2023-02-16T01:22:13.396Z,42.65
2023-02-16T01:23:00.223Z,47.55
2023-02-16T01:23:47.181Z,45.58
2023-02-16T01:24:34.067Z,49.50
2023-02-16T01:25:21.031Z,47.72
2023-02-16T01:26:13.925Z,44.83
2023-02-16T01:27:00.867Z,49.10
2023-02-16T01:27:48.299Z,48.38
2023-02-16T01:28:36.620Z,48.13
2023-02-16T01:29:23.454Z,47.75
2023-02-16T01:30:28.590Z,48.10
2023-02-16T01:31:16.237Z,41.95
2023-02-16T01:32:03.314Z,45.63
2023-02-16T01:32:54.545Z,45.38
2023-02-16T01:33:42.280Z,47.50
2023-02-16T01:34:29.190Z,45.40
2023-02-16T01:35:16.143Z,44.53
2023-02-16T01:36:04.836Z,45.25
2023-02-16T01:36:51.687Z,41.95
2023-02-16T01:37:38.799Z,45.58
2023-02-16T01:38:28.137Z,47.35
2023-02-16T01:39:18.065Z,47.15
2023-02-16T01:40:05.704Z,45.33
2023-02-16T01:41:06.797Z,42.30
2023-02-16T01:42:14.523Z,48.35
2023-02-16T01:43:29.634Z,40.97
2023-02-16T01:44:28.359Z,46.22
2023-02-16T01:45:24.642Z,42.95
2023-02-16T01:46:15.573Z,42.95
2023-02-16T01:47:20.160Z,46.17
2023-02-16T01:48:13.392Z,44.70
2023-02-16T01:49:00.315Z,42.50
2023-02-16T01:49:47.245Z,48.70
2023-02-16T01:50:44.870Z,42.50
2023-02-16T01:51:41.538Z,47.15
2023-02-16T01:52:38.441Z,42.00
2023-02-16T01:53:39.102Z,42.38
2023-02-16T01:54:35.011Z,41.42
2023-02-16T01:55:25.928Z,46.60
2023-02-16T01:56:36.931Z,43.25
2023-02-16T01:58:31.558Z,41.15
2023-02-16T02:00:01.521Z,41.58
2023-02-16T02:00:57.204Z,45.17
2023-02-16T02:01:55.801Z,42.38
2023-02-16T02:02:55.559Z,40.00
2023-02-16T02:04:00.878Z,42.13
2023-02-16T02:05:09.422Z,43.33
2023-02-16T02:05:56.287Z,41.72
2023-02-16T02:06:43.239Z,41.92
2023-02-16T02:07:46.160Z,42.20
2023-02-16T02:08:39.138Z,39.15
2023-02-16T02:09:42.289Z,44.13
2023-02-16T02:10:39.156Z,43.60
2023-02-16T02:11:47.529Z,41.80
2023-02-16T02:13:14.401Z,42.47
2023-02-16T02:14:08.106Z,39.28
2023-02-16T02:14:56.561Z,38.08
2023-02-16T02:15:43.482Z,39.47
2023-02-16T02:16:30.449Z,42.08
2023-02-16T02:17:20.760Z,40.67
2023-02-16T02:18:07.656Z,40.67
2023-02-16T02:18:54.610Z,41.28
2023-02-16T02:20:51.978Z,40.53
2023-02-16T02:22:24.816Z,36.33
2023-02-16T02:23:30.614Z,37.10
2023-02-16T02:24:40.273Z,35.08
2023-02-16T02:26:04.945Z,41.35
2023-02-16T02:27:08.845Z,39.47
2023-02-16T02:28:14.311Z,43.97
2023-02-16T02:29:09.560Z,39.70
2023-02-16T02:30:09.189Z,43.13
2023-02-16T02:31:35.383Z,39.65
2023-02-16T02:32:29.635Z,36.90
2023-02-16T02:34:01.210Z,38.75
2023-02-16T02:35:17.290Z,35.05
2023-02-16T02:36:13.365Z,33.72
2023-02-16T02:37:15.483Z,34.95
2023-02-16T02:38:14.443Z,37.67
2023-02-16T02:39:07.298Z,39.13
2023-02-16T02:40:12.606Z,38.83
2023-02-16T02:41:03.180Z,39.75
2023-02-16T02:42:19.087Z,38.90
2023-02-16T02:43:26.198Z,35.33
2023-02-16T02:44:15.466Z,42.22
2023-02-16T02:45:10.220Z,38.15
2023-02-16T02:46:13.683Z,37.85
2023-02-16T02:47:00.584Z,36.92
2023-02-16T02:47:48.210Z,40.90
2023-02-16T02:48:35.615Z,39.00
2023-02-16T02:49:22.984Z,38.10
2023-02-16T02:50:31.747Z,36.75
2023-02-16T02:51:31.099Z,40.92
2023-02-16T02:52:18.627Z,35.78
2023-02-16T02:53:15.559Z,37.70
2023-02-16T02:54:37.745Z,36.85
2023-02-16T02:55:43.170Z,36.20
2023-02-16T02:56:49.149Z,37.80
2023-02-16T02:58:06.146Z,37.35
2023-02-16T02:59:16.290Z,37.08
2023-02-16T03:00:30.022Z,38.92
2023-02-16T03:01:18.890Z,34.38
2023-02-16T03:02:08.496Z,36.13
2023-02-16T03:03:27.853Z,37.75
2023-02-16T03:04:15.924Z,34.47
2023-02-16T03:05:04.331Z,38.72
2023-02-16T03:06:14.115Z,37.78
2023-02-16T03:07:02.705Z,37.28
2023-02-16T03:07:52.011Z,35.53
2023-02-16T03:08:40.970Z,34.03
2023-02-16T03:09:28.076Z,40.25
2023-02-16T03:10:37.662Z,41.20
2023-02-16T03:11:47.927Z,32.92
2023-02-16T03:12:48.221Z,37.22
2023-02-16T03:13:38.143Z,35.20
2023-02-16T03:14:34.895Z,37.40
2023-02-16T03:15:22.894Z,36.05
2023-02-16T03:16:24.344Z,37.83
2023-02-16T03:17:32.543Z,34.63
2023-02-16T03:18:38.127Z,37.42
2023-02-16T03:19:43.463Z,39.08
2023-02-16T03:20:48.931Z,37.80
2023-02-16T03:21:54.677Z,33.92
2023-02-16T03:23:00.817Z,39.85
2023-02-16T03:24:07.389Z,34.60
2023-02-16T03:25:13.097Z,39.83
2023-02-16T03:26:18.528Z,36.70
2023-02-16T03:27:24.985Z,40.05
2023-02-16T03:28:30.890Z,31.58
2023-02-16T03:29:26.013Z,34.97
2023-02-16T03:30:13.980Z,37.65
2023-02-16T03:31:02.001Z,36.72
2023-02-16T03:31:51.224Z,32.47
2023-02-16T03:32:39.252Z,35.40
2023-02-16T03:33:26.822Z,40.70
2023-02-16T03:34:14.861Z,39.75
2023-02-16T03:35:01.950Z,36.78
2023-02-16T03:35:49.200Z,36.25
2023-02-16T03:36:38.705Z,36.38
2023-02-16T03:37:25.609Z,37.65
2023-02-16T03:38:13.135Z,36.80
2023-02-16T03:39:00.276Z,36.92
2023-02-16T03:40:05.644Z,35.13
2023-02-16T03:40:53.352Z,33.85
2023-02-16T03:41:46.150Z,39.53
2023-02-16T03:42:33.048Z,32.42
2023-02-16T03:43:19.962Z,34.42
2023-02-16T03:44:06.880Z,36.33
2023-02-16T03:44:54.004Z,39.67
2023-02-16T03:45:42.680Z,41.40
2023-02-16T03:46:29.686Z,33.63
2023-02-16T03:47:16.578Z,36.47
2023-02-16T03:48:04.105Z,32.83
2023-02-16T03:48:51.043Z,33.35
2023-02-16T03:49:38.037Z,34.03
2023-02-16T03:50:27.250Z,36.03
2023-02-16T03:51:14.412Z,36.53
2023-02-16T03:52:01.307Z,40.30
2023-02-16T03:52:48.532Z,34.50
2023-02-16T03:53:35.482Z,35.05
2023-02-16T03:54:22.354Z,34.28
2023-02-16T03:55:09.520Z,44.22
2023-02-16T03:55:56.428Z,33.47
2023-02-16T03:56:43.367Z,37.13
2023-02-16T03:57:30.285Z,38.72
2023-02-16T03:58:20.417Z,35.90
2023-02-16T03:59:07.336Z,23.77
2023-02-16T03:59:54.566Z,35.88
2023-02-16T04:00:41.782Z,37.90
2023-02-16T04:01:28.770Z,38.00
2023-02-16T04:02:15.772Z,36.85
2023-02-16T04:03:03.847Z,36.55
2023-02-16T04:03:50.799Z,36.33
2023-02-16T04:04:37.744Z,38.03
2023-02-16T04:05:24.828Z,33.75
2023-02-16T04:06:11.722Z,36.17
2023-02-16T04:06:58.621Z,40.78
2023-02-16T04:07:45.546Z,35.85
2023-02-16T04:08:32.500Z,39.42
2023-02-16T04:09:19.369Z,36.22
2023-02-16T04:10:06.893Z,37.00
2023-02-16T04:10:55.645Z,34.60
2023-02-16T04:12:01.303Z,34.20
2023-02-16T04:12:48.246Z,32.53
2023-02-16T04:13:35.109Z,36.05
2023-02-16T04:14:22.011Z,36.80
2023-02-16T04:15:14.144Z,34.00
2023-02-16T04:16:01.032Z,30.35
2023-02-16T04:16:48.032Z,36.80
2023-02-16T04:17:35.124Z,37.45
2023-02-16T04:18:22.021Z,38.40
2023-02-16T04:19:09.051Z,35.72
2023-02-16T04:19:55.939Z,37.67
2023-02-16T04:20:42.994Z,39.28
2023-02-16T04:21:29.925Z,36.38
2023-02-16T04:22:16.935Z,40.78
2023-02-16T04:23:04.395Z,37.33
2023-02-16T04:23:51.325Z,36.20
2023-02-16T04:24:38.218Z,36.05
2023-02-16T04:25:25.295Z,33.60
2023-02-16T04:26:12.179Z,36.17
2023-02-16T04:26:59.090Z,34.78
2023-02-16T04:27:46.655Z,36.85
2023-02-16T04:28:33.511Z,35.28
2023-02-16T04:29:20.456Z,36.85
2023-02-16T04:30:09.081Z,36.10
2023-02-16T04:30:56.094Z,32.13
2023-02-16T04:31:43.412Z,34.83
2023-02-16T04:32:30.411Z,30.88
2023-02-16T04:33:17.332Z,36.90
2023-02-16T04:34:04.250Z,34.85
2023-02-16T04:34:51.173Z,35.95
2023-02-16T04:35:38.002Z,37.75
2023-02-16T04:36:24.977Z,34.83
2023-02-16T04:37:11.840Z,37.70
2023-02-16T04:37:58.703Z,32.80
2023-02-16T04:38:45.632Z,33.03
2023-02-16T04:39:35.502Z,36.00
2023-02-16T04:40:22.408Z,25.30
2023-02-16T04:41:09.290Z,34.63
2023-02-16T04:41:56.180Z,36.40
2023-02-16T04:42:44.142Z,32.22
2023-02-16T04:43:31.127Z,33.83
2023-02-16T04:44:18.231Z,36.25
2023-02-16T04:45:05.318Z,36.15
2023-02-16T04:45:52.367Z,33.63
2023-02-16T04:46:39.267Z,33.35
2023-02-16T04:47:26.908Z,32.35
2023-02-16T04:48:13.831Z,34.97
2023-02-16T04:49:00.729Z,37.60
2023-02-16T04:49:50.088Z,34.45
2023-02-16T04:50:37.120Z,31.42
2023-02-16T04:51:23.961Z,32.35
2023-02-16T04:52:14.899Z,33.15
2023-02-16T04:53:01.849Z,36.85
2023-02-16T04:53:48.776Z,34.03
2023-02-16T04:54:35.589Z,34.85
2023-02-16T04:55:22.507Z,35.40
2023-02-16T04:56:12.844Z,33.72
2023-02-16T04:57:00.330Z,37.45
2023-02-16T04:57:47.231Z,35.42
2023-02-16T04:58:34.086Z,38.92
2023-02-16T04:59:21.018Z,31.67
2023-02-16T05:00:09.513Z,33.38
2023-02-16T05:00:56.528Z,37.67
2023-02-16T05:01:43.892Z,36.30
2023-02-16T05:02:30.845Z,35.00
2023-02-16T05:03:17.714Z,36.95
2023-02-16T05:04:04.838Z,39.35
2023-02-16T05:04:51.849Z,37.17
2023-02-16T05:05:39.049Z,39.65
2023-02-16T05:06:26.061Z,41.15
2023-02-16T05:07:12.975Z,38.67
2023-02-16T05:07:59.847Z,38.10
2023-02-16T05:08:47.148Z,32.85
2023-02-16T05:09:34.014Z,34.63
2023-02-16T05:10:21.152Z,36.03
2023-02-16T05:11:26.533Z,36.08
2023-02-16T05:12:32.239Z,34.15
2023-02-16T05:13:37.998Z,35.30
2023-02-16T05:14:42.665Z,32.85
2023-02-16T05:15:29.616Z,29.12
2023-02-16T05:16:16.522Z,35.28
2023-02-16T05:17:03.606Z,34.05
2023-02-16T05:17:50.554Z,34.30
2023-02-16T05:18:37.445Z,35.05
2023-02-16T05:19:24.325Z,39.80
2023-02-16T05:20:12.261Z,33.75
2023-02-16T05:21:17.662Z,35.50
2023-02-16T05:22:05.010Z,34.13
2023-02-16T05:22:51.920Z,33.90
2023-02-16T05:23:39.288Z,35.40
2023-02-16T05:24:28.221Z,35.60
2023-02-16T05:25:15.435Z,36.72
2023-02-16T05:26:05.181Z,32.45
2023-02-16T05:27:10.268Z,27.05
2023-02-16T05:28:08.280Z,31.87
2023-02-16T05:28:56.005Z,32.97
2023-02-16T05:29:43.015Z,31.10
2023-02-16T05:30:30.049Z,35.30
2023-02-16T05:31:17.177Z,36.08
2023-02-16T05:32:04.911Z,34.65
2023-02-16T05:32:52.026Z,35.00
2023-02-16T05:33:38.863Z,35.00
2023-02-16T05:34:26.420Z,35.75
2023-02-16T05:35:13.258Z,35.92
2023-02-16T05:36:00.214Z,37.00
2023-02-16T05:36:47.210Z,35.20
2023-02-16T05:37:34.059Z,31.42
2023-02-16T05:38:21.078Z,31.67
2023-02-16T05:39:08.067Z,33.75
2023-02-16T05:39:55.080Z,34.80
2023-02-16T05:40:41.927Z,34.22
2023-02-16T05:41:28.789Z,34.83
2023-02-16T05:42:15.743Z,33.97
2023-02-16T05:43:02.814Z,34.10
2023-02-16T05:43:58.250Z,30.23
2023-02-16T05:44:45.222Z,35.63
2023-02-16T05:45:32.226Z,34.25
2023-02-16T05:46:21.525Z,33.15
2023-02-16T05:47:08.595Z,34.28
2023-02-16T05:47:55.387Z,35.35
2023-02-16T05:48:42.541Z,34.17
2023-02-16T05:49:29.574Z,34.50
2023-02-16T05:50:16.555Z,34.58
2023-02-16T05:51:03.803Z,32.15
2023-02-16T05:51:51.027Z,36.80
2023-02-16T05:52:37.993Z,37.97
2023-02-16T05:53:24.945Z,37.80
2023-02-16T05:54:17.655Z,33.28
2023-02-16T05:55:05.287Z,32.97
2023-02-16T05:55:52.250Z,36.75
2023-02-16T05:56:39.105Z,32.13
2023-02-16T05:57:25.974Z,34.70
2023-02-16T05:58:12.901Z,36.75
2023-02-16T05:59:00.692Z,32.83
2023-02-16T05:59:47.806Z,34.00
2023-02-16T06:00:36.102Z,37.42
2023-02-16T06:01:23.015Z,35.55
2023-02-16T06:02:10.165Z,33.83
2023-02-16T06:02:57.303Z,34.22
2023-02-16T06:03:44.794Z,35.83
2023-02-16T06:04:33.093Z,34.33
2023-02-16T06:05:20.019Z,33.30
2023-02-16T06:06:07.864Z,32.65
2023-02-16T06:06:55.306Z,32.47
2023-02-16T06:07:42.493Z,33.85
2023-02-16T06:08:30.786Z,38.58
2023-02-16T06:09:18.158Z,37.97
2023-02-16T06:10:05.643Z,36.80
2023-02-16T06:10:53.817Z,31.67
2023-02-16T06:11:41.095Z,32.58
2023-02-16T06:12:28.345Z,37.47
2023-02-16T06:13:15.593Z,29.98
2023-02-16T06:14:09.827Z,33.90
2023-02-16T06:14:57.147Z,34.28
2023-02-16T06:15:44.316Z,33.33
2023-02-16T06:16:32.167Z,36.72
2023-02-16T06:17:19.246Z,34.72
2023-02-16T06:18:06.252Z,34.45
2023-02-16T06:18:54.555Z,35.88
2023-02-16T06:19:41.408Z,34.28
2023-02-16T06:20:28.702Z,34.13
2023-02-16T06:21:15.790Z,33.40
2023-02-16T06:22:02.685Z,38.65
2023-02-16T06:22:49.630Z,33.30
2023-02-16T06:23:36.554Z,34.10
2023-02-16T06:24:23.421Z,35.22
2023-02-16T06:25:10.455Z,33.67
2023-02-16T06:25:57.557Z,32.08
2023-02-16T06:26:44.607Z,33.72
2023-02-16T06:27:31.613Z,35.78
2023-02-16T06:28:18.930Z,36.80
2023-02-16T06:29:06.581Z,34.53
2023-02-16T06:29:53.427Z,33.58
2023-02-16T06:30:42.799Z,33.95
2023-02-16T06:31:29.938Z,33.38
2023-02-16T06:32:20.518Z,34.47
2023-02-16T06:33:54.634Z,30.58
2023-02-16T06:34:41.746Z,31.30
2023-02-16T06:35:29.025Z,33.25
2023-02-16T06:36:16.820Z,32.92
2023-02-16T06:37:03.930Z,33.10
2023-02-16T06:37:51.585Z,36.28
2023-02-16T06:38:38.479Z,37.50
2023-02-16T06:39:28.691Z,33.55
2023-02-16T06:40:16.396Z,33.70
2023-02-16T06:41:03.931Z,37.38
2023-02-16T06:41:51.393Z,38.00
2023-02-16T06:42:38.555Z,33.40
2023-02-16T06:43:25.581Z,33.58
2023-02-16T06:44:14.839Z,32.47
2023-02-16T06:45:02.001Z,33.17
2023-02-16T06:45:49.779Z,35.50
2023-02-16T06:46:37.491Z,33.30
2023-02-16T06:47:24.412Z,36.45
2023-02-16T06:48:11.350Z,34.45
2023-02-16T06:48:58.631Z,35.78
2023-02-16T06:49:45.873Z,34.05
2023-02-16T06:50:33.024Z,34.38
2023-02-16T06:51:20.571Z,34.17
2023-02-16T06:52:07.950Z,35.05
2023-02-16T06:52:54.980Z,37.25
2023-02-16T06:53:42.033Z,35.15
2023-02-16T06:54:29.266Z,37.55
2023-02-16T06:55:16.463Z,34.15
2023-02-16T06:56:03.835Z,39.20
2023-02-16T06:56:50.754Z,35.13
2023-02-16T06:57:37.811Z,32.63
2023-02-16T06:58:25.335Z,34.45
2023-02-16T06:59:13.352Z,35.80
2023-02-16T07:00:00.385Z,33.42
2023-02-16T07:00:47.513Z,32.83
2023-02-16T07:01:35.037Z,33.83
2023-02-16T07:02:22.298Z,37.50
2023-02-16T07:03:09.419Z,38.55
2023-02-16T07:03:57.180Z,36.97
2023-02-16T07:04:44.179Z,34.15
2023-02-16T07:05:31.387Z,34.85
2023-02-16T07:06:19.561Z,32.70
2023-02-16T07:07:06.549Z,36.13
2023-02-16T07:07:53.705Z,31.50
2023-02-16T07:08:40.837Z,34.88
2023-02-16T07:09:27.830Z,35.30
2023-02-16T07:10:14.962Z,35.33
2023-02-16T07:11:02.601Z,41.28
2023-02-16T07:11:49.812Z,37.88
2023-02-16T07:12:36.827Z,35.00
2023-02-16T07:13:23.962Z,37.75
2023-02-16T07:14:11.091Z,36.92
2023-02-16T07:14:58.258Z,34.65
2023-02-16T07:15:45.403Z,36.17
2023-02-16T07:16:32.563Z,39.08
2023-02-16T07:17:19.526Z,46.30
2023-02-16T07:18:06.825Z,46.72
2023-02-16T07:18:53.799Z,40.88
2023-02-16T07:19:41.458Z,44.88
2023-02-16T07:20:28.663Z,42.28
2023-02-16T07:21:15.798Z,51.40
2023-02-16T07:22:03.452Z,48.58
2023-02-16T07:22:50.567Z,44.47
2023-02-16T07:23:37.670Z,49.10
2023-02-16T07:24:24.786Z,45.65
2023-02-16T07:25:11.871Z,53.17
2023-02-16T07:25:59.088Z,48.75
2023-02-16T07:26:46.133Z,45.12
2023-02-16T07:27:33.416Z,46.10
2023-02-16T07:28:20.496Z,51.15
2023-02-16T07:29:07.689Z,49.05
2023-02-16T07:29:57.155Z,52.90
2023-02-16T07:30:44.620Z,53.25
2023-02-16T07:31:31.818Z,50.78
2023-02-16T07:32:19.136Z,52.25
2023-02-16T07:33:08.939Z,53.05
2023-02-16T07:33:56.012Z,52.40
2023-02-16T07:34:43.047Z,51.95
2023-02-16T07:35:32.289Z,53.35
2023-02-16T07:36:21.414Z,59.83
2023-02-16T07:37:08.365Z,57.22
2023-02-16T07:37:55.428Z,49.20
2023-02-16T07:38:42.604Z,57.38
2023-02-16T07:39:31.127Z,62.05
2023-02-16T07:40:18.093Z,62.88
2023-02-16T07:41:08.717Z,71.03
2023-02-16T07:41:56.451Z,66.22
2023-02-16T07:42:43.446Z,72.85
2023-02-16T07:43:30.446Z,71.62
2023-02-16T07:44:17.532Z,73.28
2023-02-16T07:45:04.791Z,72.55
2023-02-16T07:45:52.328Z,72.25
2023-02-16T07:46:39.628Z,74.85
2023-02-16T07:47:26.951Z,74.85
2023-02-16T07:48:14.232Z,80.10
2023-02-16T07:49:01.723Z,88.45
2023-02-16T07:49:48.718Z,81.22
2023-02-16T07:50:37.724Z,71.22
2023-02-16T07:51:26.646Z,77.68
2023-02-16T07:52:13.785Z,79.97
2023-02-16T07:53:04.365Z,74.72
2023-02-16T07:54:40.894Z,73.12
2023-02-16T07:55:28.051Z,81.65
2023-02-16T07:56:34.914Z,115.82
2023-02-16T07:57:22.890Z,89.60
2023-02-16T07:58:10.426Z,88.35
2023-02-16T07:58:59.168Z,87.07
2023-02-16T07:59:46.224Z,89.28
2023-02-16T08:00:33.419Z,86.82
2023-02-16T08:01:20.914Z,89.18
2023-02-16T08:02:11.187Z,86.00
2023-02-16T08:02:58.445Z,84.62
2023-02-16T08:03:45.654Z,80.43
2023-02-16T08:04:32.750Z,86.57
2023-02-16T08:05:19.970Z,79.22
2023-02-16T08:06:08.010Z,78.05
2023-02-16T08:06:55.498Z,81.97
2023-02-16T08:07:42.490Z,77.45
2023-02-16T08:08:29.533Z,83.32
2023-02-16T08:09:16.944Z,79.72
2023-02-16T08:10:06.202Z,83.30
2023-02-16T08:10:54.941Z,81.70
2023-02-16T08:11:42.567Z,83.45
2023-02-16T08:12:30.211Z,82.10
2023-02-16T08:13:18.379Z,81.30
2023-02-16T08:14:05.781Z,81.45
2023-02-16T08:14:53.387Z,80.93
2023-02-16T08:15:44.536Z,84.07
2023-02-16T08:16:31.600Z,88.90
2023-02-16T08:17:19.001Z,83.47
2023-02-16T08:18:06.150Z,88.70
2023-02-16T08:18:56.819Z,81.12
2023-02-16T08:19:44.019Z,92.70
2023-02-16T08:20:48.183Z,75.07
2023-02-16T08:21:39.573Z,77.62
2023-02-16T08:22:26.608Z,89.53
2023-02-16T08:23:13.864Z,77.45
2023-02-16T08:24:08.059Z,76.35
2023-02-16T08:24:55.156Z,72.37
2023-02-16T08:25:42.162Z,85.55
2023-02-16T08:26:37.509Z,76.30
2023-02-16T08:27:29.221Z,72.43
2023-02-16T08:28:17.266Z,82.25
2023-02-16T08:29:05.996Z,69.15
2023-02-16T08:29:53.825Z,69.68
2023-02-16T08:30:41.488Z,68.28
2023-02-16T08:31:30.686Z,75.05
2023-02-16T08:32:18.304Z,68.50
2023-02-16T08:33:06.085Z,68.97
2023-02-16T08:33:57.905Z,69.68
2023-02-16T08:34:45.015Z,73.68
2023-02-16T08:35:32.905Z,76.37
2023-02-16T08:36:25.389Z,66.40
2023-02-16T08:37:13.824Z,77.30
2023-02-16T08:38:01.432Z,74.07
2023-02-16T08:38:51.104Z,69.47
2023-02-16T08:39:38.689Z,73.67
2023-02-16T08:40:26.933Z,74.78
2023-02-16T08:41:14.049Z,71.15
2023-02-16T08:42:02.191Z,69.68
2023-02-16T08:42:49.439Z,72.60
2023-02-16T08:43:37.088Z,71.00
2023-02-16T08:44:25.477Z,71.35
2023-02-16T08:45:16.420Z,70.78
2023-02-16T08:46:04.399Z,68.82
2023-02-16T08:46:54.677Z,77.95
2023-02-16T08:47:41.759Z,73.62
2023-02-16T08:48:37.002Z,74.62
2023-02-16T08:49:25.184Z,77.25
2023-02-16T08:50:13.711Z,76.20
2023-02-16T08:51:00.638Z,74.90
2023-02-16T08:51:55.062Z,79.43
2023-02-16T08:52:42.260Z,71.95
2023-02-16T08:53:34.144Z,70.60
2023-02-16T08:54:25.860Z,77.45
2023-02-16T08:55:15.258Z,68.00
2023-02-16T08:56:04.159Z,78.50
2023-02-16T08:56:52.103Z,72.05
2023-02-16T08:57:39.249Z,76.07
2023-02-16T08:58:27.134Z,77.87
2023-02-16T08:59:19.236Z,75.37
2023-02-16T09:00:27.462Z,80.65
2023-02-16T09:01:15.609Z,78.68
2023-02-16T09:02:03.055Z,83.05
2023-02-16T09:02:50.366Z,77.68
2023-02-16T09:03:39.717Z,74.95
2023-02-16T09:04:29.177Z,80.03
2023-02-16T09:05:17.864Z,77.95
2023-02-16T09:06:09.523Z,73.75
2023-02-16T09:06:58.929Z,73.85
2023-02-16T09:07:46.044Z,79.95
2023-02-16T09:08:34.607Z,74.95
2023-02-16T09:09:22.326Z,65.70
2023-02-16T09:10:09.833Z,70.70
2023-02-16T09:10:56.953Z,72.47
2023-02-16T09:11:47.294Z,70.82
2023-02-16T09:12:36.044Z,67.65
2023-02-16T09:13:23.105Z,71.10
2023-02-16T09:14:11.163Z,90.57
2023-02-16T09:14:59.251Z,88.97
2023-02-16T09:15:48.024Z,84.72
2023-02-16T09:16:39.213Z,66.53
2023-02-16T09:17:29.965Z,58.72
2023-02-16T09:19:04.082Z,60.17
2023-02-16T09:19:51.162Z,75.53
2023-02-16T09:20:42.975Z,63.60
2023-02-16T09:21:34.460Z,61.22
2023-02-16T09:23:11.250Z,63.03
2023-02-16T09:24:00.089Z,71.20
2023-02-16T09:24:48.983Z,57.50
2023-02-16T09:25:38.708Z,58.15
2023-02-16T09:26:27.516Z,64.87
2023-02-16T09:27:14.544Z,57.40
2023-02-16T09:28:01.726Z,60.40
2023-02-16T09:28:51.657Z,56.45
2023-02-16T09:29:38.904Z,55.00
2023-02-16T09:30:27.159Z,56.22
2023-02-16T09:31:26.585Z,54.05
2023-02-16T09:32:14.679Z,62.42
2023-02-16T09:33:03.508Z,59.20
2023-02-16T09:33:50.726Z,63.15
2023-02-16T09:34:38.729Z,58.22
2023-02-16T09:35:26.827Z,53.00
2023-02-16T09:36:15.284Z,60.10
2023-02-16T09:37:03.010Z,78.87
2023-02-16T09:37:50.307Z,63.58
2023-02-16T09:38:39.879Z,67.32
2023-02-16T09:39:27.230Z,58.45
2023-02-16T09:40:14.851Z,62.70
2023-02-16T09:41:16.249Z,66.72
2023-02-16T09:42:32.485Z,58.30
2023-02-16T09:43:47.902Z,58.60
2023-02-16T09:44:51.491Z,56.72
2023-02-16T09:45:48.688Z,53.72
2023-02-16T09:46:37.044Z,56.97
2023-02-16T09:47:31.392Z,53.33
2023-02-16T09:48:34.058Z,56.30
2023-02-16T09:49:33.046Z,55.20
2023-02-16T09:50:53.786Z,54.47
2023-02-16T09:51:41.283Z,54.65
2023-02-16T09:52:40.992Z,57.17
2023-02-16T09:53:44.157Z,59.40
2023-02-16T09:54:53.811Z,53.20
2023-02-16T09:56:15.439Z,56.72
2023-02-16T09:57:12.978Z,56.05
2023-02-16T09:58:19.865Z,57.72
2023-02-16T09:59:35.008Z,65.30
2023-02-16T10:00:33.703Z,58.15
2023-02-16T10:01:40.613Z,52.80
2023-02-16T10:03:06.544Z,55.35
2023-02-16T10:04:06.044Z,57.95
2023-02-16T10:05:13.239Z,54.15
2023-02-16T10:06:20.772Z,58.47
2023-02-16T10:07:37.214Z,57.53
2023-02-16T10:08:34.552Z,56.20
2023-02-16T10:09:21.821Z,51.83
2023-02-16T10:10:17.262Z,54.95
2023-02-16T10:11:30.556Z,57.95
2023-02-16T10:12:25.462Z,56.65
2023-02-16T10:13:19.605Z,57.83
2023-02-16T10:14:18.263Z,60.38
2023-02-16T10:15:15.445Z,58.45
2023-02-16T10:16:05.538Z,57.85
2023-02-16T10:17:19.166Z,53.42
2023-02-16T10:18:22.358Z,52.62
2023-02-16T10:19:22.596Z,55.17
2023-02-16T10:20:17.228Z,56.95
2023-02-16T10:21:10.841Z,54.65
2023-02-16T10:22:01.440Z,55.72
2023-02-16T10:24:07.464Z,51.08
2023-02-16T10:25:12.469Z,55.60
2023-02-16T10:26:14.688Z,57.75
2023-02-16T10:27:09.444Z,59.03
2023-02-16T10:28:21.858Z,54.17
2023-02-16T10:29:23.510Z,59.22
2023-02-16T10:30:19.355Z,56.97
2023-02-16T10:31:38.579Z,51.42
2023-02-16T10:32:31.082Z,57.78
2023-02-16T10:33:36.916Z,57.35
2023-02-16T10:34:31.603Z,58.63
2023-02-16T10:35:37.916Z,59.05
2023-02-16T10:36:42.486Z,55.35
2023-02-16T10:37:40.603Z,54.63
2023-02-16T10:38:32.683Z,61.17
2023-02-16T10:39:32.879Z,54.92
2023-02-16T10:40:26.858Z,59.88
2023-02-16T10:41:17.085Z,57.95
2023-02-16T10:42:27.425Z,56.15
2023-02-16T10:43:22.523Z,54.83
2023-02-16T10:44:28.989Z,54.35
2023-02-16T10:45:37.584Z,56.25
2023-02-16T10:46:29.215Z,51.30
2023-02-16T10:47:35.434Z,58.38
2023-02-16T10:48:23.779Z,55.12
2023-02-16T10:49:17.000Z,57.22
2023-02-16T10:50:07.458Z,56.72
2023-02-16T10:51:07.621Z,56.90
2023-02-16T10:51:56.683Z,56.60
2023-02-16T10:52:44.544Z,56.78
2023-02-16T10:54:04.493Z,57.13
2023-02-16T10:54:51.900Z,61.80
2023-02-16T10:55:39.765Z,57.38
2023-02-16T10:56:33.482Z,61.50
2023-02-16T10:57:27.990Z,60.22
2023-02-16T10:58:22.693Z,56.47
2023-02-16T10:59:18.127Z,58.35
2023-02-16T11:00:17.206Z,58.90
2023-02-16T11:01:13.959Z,57.45
2023-02-16T11:02:15.320Z,55.58
2023-02-16T11:03:04.120Z,59.15
2023-02-16T11:03:53.344Z,61.92
2023-02-16T11:04:43.528Z,59.30
2023-02-16T11:05:35.962Z,57.92
2023-02-16T11:06:25.956Z,62.67
2023-02-16T11:07:20.355Z,60.45
2023-02-16T11:08:12.024Z,57.72
2023-02-16T11:09:01.598Z,62.33
2023-02-16T11:09:55.239Z,59.58
2023-02-16T11:10:52.253Z,63.70
2023-02-16T11:11:43.877Z,60.67
2023-02-16T11:12:38.632Z,58.38
2023-02-16T11:13:30.149Z,61.88